Date,TemperatureHighF,TemperatureAvgF,TemperatureLowF,DewpointHighF,DewpointAvgF,DewpointLowF,HumidityHigh,HumidityAvg,HumidityLow,PressureMaxIn,PressureMinIn,WindSpeedMaxMPH,WindSpeedAvgMPH,GustSpeedMaxMPH,PrecipitationSumIn
2013-3-1,44.0,39.7,36.0,-99.9,-99.9,-99.9,0,0,100,29.77,29.60,19,11,26,0.00
2013-3-2,39.0,34.5,31.0,-99.9,-99.9,-99.9,0,0,100,29.78,29.69,19,12,22,0.00
2013-3-3,38.0,19.5,30.0,-99.9,-99.9,-99.9,0,0,100,29.76,29.66,23,14,30,0.00
2013-3-4,40.0,25.8,29.0,-99.9,-99.9,-99.9,0,0,100,29.90,29.76,25,16,32,0.00
2013-3-5,47.0,38.9,33.0,-99.9,-99.9,-99.9,0,0,100,30.01,29.90,21,8,28,0.00
2013-3-6,42.0,40.2,39.0,-99.9,-99.9,-99.9,0,0,100,29.97,29.82,27,14,42,0.00
2013-3-7,39.0,36.7,34.0,-99.9,-99.9,-99.9,0,0,100,30.07,29.90,26,18,36,0.00
2013-3-8,42.0,27.7,31.0,-99.9,-99.9,-99.9,0,0,100,30.17,29.99,20,13,24,0.00
2013-3-9,54.0,43.5,35.0,-99.9,-99.9,-99.9,0,0,100,30.30,30.16,17,-12,20,0.00
2013-3-10,43.0,39.1,35.0,-99.9,-99.9,-99.9,0,0,100,30.38,30.30,11,-54,16,0.00
2013-3-11,51.0,44.6,38.0,-99.9,-99.9,-99.9,0,0,100,30.31,30.07,11,-9,18,0.00
2013-3-12,58.0,52.1,46.0,-99.9,-99.9,-99.9,0,0,100,30.08,29.65,20,10,25,0.00
2013-3-13,50.0,43.8,39.0,-99.9,-99.9,-99.9,0,0,100,29.88,29.78,16,8,25,0.00
2013-3-14,41.0,31.1,31.0,-99.9,-99.9,-99.9,0,0,100,29.96,29.83,28,17,41,0.00
2013-3-15,48.0,34.0,30.0,-99.9,-99.9,-99.9,0,0,100,29.98,29.70,22,11,32,0.00
2013-3-16,44.0,36.6,33.0,-99.9,-99.9,-99.9,0,0,100,29.90,29.76,17,7,22,0.00
2013-3-17,37.0,30.0,30.0,-99.9,-99.9,-99.9,0,0,100,30.28,29.90,18,12,24,0.00
2013-3-18,36.0,22.8,29.0,-99.9,-99.9,-99.9,0,0,100,30.39,30.01,13,8,21,0.00
2013-3-19,47.0,39.2,34.0,-99.9,-99.9,-99.9,0,0,100,30.01,29.69,17,2,23,0.00
2013-3-20,46.0,39.2,33.0,-99.9,-99.9,-99.9,0,0,100,29.88,29.77,21,4,32,0.00
2013-3-21,41.0,31.4,32.0,-99.9,-99.9,-99.9,0,0,100,29.83,29.62,19,12,24,0.00
2013-3-22,41.0,26.4,29.0,-99.9,-99.9,-99.9,0,0,100,29.87,29.73,21,11,28,0.00
2013-3-23,44.0,38.5,33.0,-99.9,-99.9,-99.9,0,0,100,29.93,29.81,26,14,33,0.00
2013-3-24,45.0,38.9,33.0,-99.9,-99.9,-99.9,0,0,100,29.94,29.69,22,8,26,0.00
2013-3-25,40.0,38.0,34.0,-99.9,-99.9,-99.9,0,0,100,29.71,29.45,16,8,24,0.00
2013-3-26,49.0,42.4,35.0,-99.9,-99.9,-99.9,0,0,100,29.85,29.57,16,7,22,0.00
2013-3-27,50.0,43.5,37.0,-99.9,-99.9,-99.9,0,0,100,29.97,29.85,21,11,30,0.00
2013-3-28,48.0,43.3,37.0,-99.9,-99.9,-99.9,0,0,100,30.09,29.96,23,11,31,0.00
2013-3-29,53.0,45.9,39.0,-99.9,-99.9,-99.9,0,0,100,30.14,30.04,20,8,24,0.00
2013-3-30,57.0,48.1,39.0,-99.9,-99.9,-99.9,0,0,100,30.16,30.04,14,-16,20,0.00
2013-3-31,54.0,46.5,39.0,-99.9,-99.9,-99.9,0,0,100,30.11,29.66,14,-8,23,0.00